Aviation Digital Data Service (ADDS)

Output produced by METARs form (1748 UTC 31 October 2014)
found at http://aviationweather.gov/adds/metars/
 
KPWM 311720Z 3118/0118 08006KT P6SM BKN060 
     FM010900 02009KT P6SM OVC025 
     FM011500 01013G20KT 6SM -RA OVC025